sensor_id;sensor_type;location;lat;lon;timestamp;P1;durP1;ratioP1;P2;durP2;ratioP2
19782;SDS011;10051;40.294;-3.754;2022-07-23T00:02:17;6.25;;;2.72;;
19782;SDS011;10051;40.294;-3.754;2022-07-23T00:04:43;6.32;;;2.97;;
19782;SDS011;10051;40.294;-3.754;2022-07-23T00:07:08;6.22;;;2.75;;
19782;SDS011;10051;40.294;-3.754;2022-07-23T00:09:33;5.90;;;2.75;;
19782;SDS011;10051;40.294;-3.754;2022-07-23T00:11:59;7.03;;;2.75;;
19782;SDS011;10051;40.294;-3.754;2022-07-23T00:14:24;8.35;;;3.33;;
19782;SDS011;10051;40.294;-3.754;2022-07-23T00:16:50;7.13;;;2.83;;
19782;SDS011;10051;40.294;-3.754;2022-07-23T00:19:15;6.40;;;3.10;;
19782;SDS011;10051;40.294;-3.754;2022-07-23T00:21:41;9.60;;;3.00;;
19782;SDS011;10051;40.294;-3.754;2022-07-23T00:24:06;5.05;;;2.90;;
19782;SDS011;10051;40.294;-3.754;2022-07-23T00:26:32;5.60;;;2.85;;
19782;SDS011;10051;40.294;-3.754;2022-07-23T00:28:58;5.68;;;3.10;;
19782;SDS011;10051;40.294;-3.754;2022-07-23T00:31:23;6.30;;;2.70;;
19782;SDS011;10051;40.294;-3.754;2022-07-23T00:33:48;5.38;;;2.50;;
19782;SDS011;10051;40.294;-3.754;2022-07-23T00:36:14;9.02;;;2.70;;
19782;SDS011;10051;40.294;-3.754;2022-07-23T00:38:39;8.32;;;2.70;;
19782;SDS011;10051;40.294;-3.754;2022-07-23T00:41:05;9.20;;;2.90;;
19782;SDS011;10051;40.294;-3.754;2022-07-23T00:43:30;6.93;;;2.67;;
19782;SDS011;10051;40.294;-3.754;2022-07-23T00:45:56;8.48;;;2.80;;
19782;SDS011;10051;40.294;-3.754;2022-07-23T00:48:22;7.10;;;2.75;;
19782;SDS011;10051;40.294;-3.754;2022-07-23T00:50:47;6.00;;;2.90;;
19782;SDS011;10051;40.294;-3.754;2022-07-23T00:53:13;4.78;;;2.65;;
19782;SDS011;10051;40.294;-3.754;2022-07-23T00:55:40;5.05;;;2.97;;
19782;SDS011;10051;40.294;-3.754;2022-07-23T00:58:06;8.68;;;3.20;;
19782;SDS011;10051;40.294;-3.754;2022-07-23T01:00:33;7.60;;;2.90;;
19782;SDS011;10051;40.294;-3.754;2022-07-23T01:02:59;6.32;;;3.10;;
19782;SDS011;10051;40.294;-3.754;2022-07-23T01:05:24;8.27;;;3.10;;
19782;SDS011;10051;40.294;-3.754;2022-07-23T01:07:50;5.18;;;3.00;;
19782;SDS011;10051;40.294;-3.754;2022-07-23T01:10:17;7.85;;;3.30;;
19782;SDS011;10051;40.294;-3.754;2022-07-23T01:15:25;5.22;;;2.70;;
19782;SDS011;10051;40.294;-3.754;2022-07-23T01:17:51;7.53;;;3.03;;
19782;SDS011;10051;40.294;-3.754;2022-07-23T01:20:17;6.22;;;3.25;;
19782;SDS011;10051;40.294;-3.754;2022-07-23T01:22:43;5.00;;;3.25;;
19782;SDS011;10051;40.294;-3.754;2022-07-23T01:25:08;10.93;;;3.42;;
19782;SDS011;10051;40.294;-3.754;2022-07-23T01:27:34;7.68;;;3.60;;
19782;SDS011;10051;40.294;-3.754;2022-07-23T01:30:00;9.02;;;4.00;;
19782;SDS011;10051;40.294;-3.754;2022-07-23T01:32:27;8.05;;;3.80;;
19782;SDS011;10051;40.294;-3.754;2022-07-23T01:34:53;9.73;;;3.70;;
19782;SDS011;10051;40.294;-3.754;2022-07-23T01:37:19;7.63;;;3.40;;
19782;SDS011;10051;40.294;-3.754;2022-07-23T01:39:44;8.23;;;3.58;;
19782;SDS011;10051;40.294;-3.754;2022-07-23T01:42:10;6.35;;;3.22;;
19782;SDS011;10051;40.294;-3.754;2022-07-23T01:44:35;8.93;;;3.20;;
19782;SDS011;10051;40.294;-3.754;2022-07-23T01:47:01;9.32;;;3.47;;
19782;SDS011;10051;40.294;-3.754;2022-07-23T01:49:26;7.45;;;3.38;;
19782;SDS011;10051;40.294;-3.754;2022-07-23T01:51:51;10.07;;;3.40;;
19782;SDS011;10051;40.294;-3.754;2022-07-23T01:54:26;5.63;;;3.20;;
19782;SDS011;10051;40.294;-3.754;2022-07-23T01:56:53;7.40;;;3.30;;
19782;SDS011;10051;40.294;-3.754;2022-07-23T01:59:19;8.98;;;3.33;;
19782;SDS011;10051;40.294;-3.754;2022-07-23T02:01:45;7.70;;;3.30;;
19782;SDS011;10051;40.294;-3.754;2022-07-23T02:04:10;7.63;;;3.75;;
19782;SDS011;10051;40.294;-3.754;2022-07-23T02:06:36;5.90;;;3.30;;
19782;SDS011;10051;40.294;-3.754;2022-07-23T02:09:01;7.05;;;3.45;;
19782;SDS011;10051;40.294;-3.754;2022-07-23T02:11:27;5.38;;;3.53;;
19782;SDS011;10051;40.294;-3.754;2022-07-23T02:13:52;8.95;;;3.63;;
19782;SDS011;10051;40.294;-3.754;2022-07-23T02:16:18;6.15;;;3.70;;
19782;SDS011;10051;40.294;-3.754;2022-07-23T02:18:43;6.93;;;3.50;;
19782;SDS011;10051;40.294;-3.754;2022-07-23T02:21:09;6.82;;;3.45;;
19782;SDS011;10051;40.294;-3.754;2022-07-23T02:23:34;6.85;;;3.92;;
19782;SDS011;10051;40.294;-3.754;2022-07-23T02:26:00;9.75;;;4.22;;
19782;SDS011;10051;40.294;-3.754;2022-07-23T02:28:25;6.75;;;3.95;;
19782;SDS011;10051;40.294;-3.754;2022-07-23T02:30:51;6.43;;;4.20;;
19782;SDS011;10051;40.294;-3.754;2022-07-23T02:33:16;6.18;;;4.13;;
19782;SDS011;10051;40.294;-3.754;2022-07-23T02:35:42;5.00;;;3.67;;
19782;SDS011;10051;40.294;-3.754;2022-07-23T02:38:07;10.98;;;4.38;;
19782;SDS011;10051;40.294;-3.754;2022-07-23T02:40:33;8.95;;;4.20;;
19782;SDS011;10051;40.294;-3.754;2022-07-23T02:42:58;8.68;;;4.18;;
19782;SDS011;10051;40.294;-3.754;2022-07-23T02:45:24;6.50;;;4.30;;
19782;SDS011;10051;40.294;-3.754;2022-07-23T02:47:49;7.97;;;4.30;;
19782;SDS011;10051;40.294;-3.754;2022-07-23T02:50:15;7.93;;;4.15;;
19782;SDS011;10051;40.294;-3.754;2022-07-23T02:52:40;6.72;;;4.43;;
19782;SDS011;10051;40.294;-3.754;2022-07-23T02:55:07;11.90;;;4.43;;
19782;SDS011;10051;40.294;-3.754;2022-07-23T02:57:33;8.07;;;4.18;;
19782;SDS011;10051;40.294;-3.754;2022-07-23T02:59:59;8.50;;;4.40;;
19782;SDS011;10051;40.294;-3.754;2022-07-23T03:02:24;11.15;;;4.65;;
19782;SDS011;10051;40.294;-3.754;2022-07-23T03:04:50;9.85;;;4.60;;
19782;SDS011;10051;40.294;-3.754;2022-07-23T03:07:16;8.13;;;4.70;;
19782;SDS011;10051;40.294;-3.754;2022-07-23T03:09:42;8.93;;;4.57;;
19782;SDS011;10051;40.294;-3.754;2022-07-23T03:12:08;7.80;;;4.30;;
19782;SDS011;10051;40.294;-3.754;2022-07-23T03:14:33;10.90;;;4.10;;
19782;SDS011;10051;40.294;-3.754;2022-07-23T03:16:59;8.00;;;4.45;;
19782;SDS011;10051;40.294;-3.754;2022-07-23T03:19:25;10.70;;;4.40;;
19782;SDS011;10051;40.294;-3.754;2022-07-23T03:21:51;10.48;;;4.60;;
19782;SDS011;10051;40.294;-3.754;2022-07-23T03:24:16;10.00;;;4.70;;
19782;SDS011;10051;40.294;-3.754;2022-07-23T03:26:45;8.35;;;4.25;;
19782;SDS011;10051;40.294;-3.754;2022-07-23T03:29:10;9.30;;;4.50;;
19782;SDS011;10051;40.294;-3.754;2022-07-23T03:31:36;8.30;;;4.45;;
19782;SDS011;10051;40.294;-3.754;2022-07-23T03:34:01;6.07;;;4.07;;
19782;SDS011;10051;40.294;-3.754;2022-07-23T03:36:27;8.65;;;4.30;;
19782;SDS011;10051;40.294;-3.754;2022-07-23T03:38:53;11.68;;;4.53;;
19782;SDS011;10051;40.294;-3.754;2022-07-23T03:41:19;9.98;;;4.28;;
19782;SDS011;10051;40.294;-3.754;2022-07-23T03:43:45;7.20;;;4.35;;
19782;SDS011;10051;40.294;-3.754;2022-07-23T03:46:11;8.38;;;4.60;;
19782;SDS011;10051;40.294;-3.754;2022-07-23T03:48:37;7.28;;;4.80;;
19782;SDS011;10051;40.294;-3.754;2022-07-23T03:51:02;9.43;;;4.90;;
19782;SDS011;10051;40.294;-3.754;2022-07-23T03:53:28;8.60;;;4.53;;
19782;SDS011;10051;40.294;-3.754;2022-07-23T03:55:53;13.63;;;4.97;;
19782;SDS011;10051;40.294;-3.754;2022-07-23T03:58:19;8.70;;;4.53;;
19782;SDS011;10051;40.294;-3.754;2022-07-23T04:00:45;13.02;;;4.50;;
19782;SDS011;10051;40.294;-3.754;2022-07-23T04:03:11;7.32;;;4.65;;
19782;SDS011;10051;40.294;-3.754;2022-07-23T04:05:36;10.93;;;4.90;;
19782;SDS011;10051;40.294;-3.754;2022-07-23T04:08:02;6.18;;;4.55;;
19782;SDS011;10051;40.294;-3.754;2022-07-23T04:10:27;10.52;;;4.90;;
19782;SDS011;10051;40.294;-3.754;2022-07-23T04:12:53;7.43;;;4.78;;
19782;SDS011;10051;40.294;-3.754;2022-07-23T04:15:18;10.73;;;4.82;;
19782;SDS011;10051;40.294;-3.754;2022-07-23T04:17:44;10.52;;;4.47;;
19782;SDS011;10051;40.294;-3.754;2022-07-23T04:20:11;7.78;;;4.45;;
19782;SDS011;10051;40.294;-3.754;2022-07-23T04:22:37;9.77;;;4.80;;
19782;SDS011;10051;40.294;-3.754;2022-07-23T04:25:02;8.30;;;4.68;;
19782;SDS011;10051;40.294;-3.754;2022-07-23T04:27:28;8.77;;;4.47;;
19782;SDS011;10051;40.294;-3.754;2022-07-23T04:29:53;9.50;;;4.93;;
19782;SDS011;10051;40.294;-3.754;2022-07-23T04:32:19;11.68;;;4.70;;
19782;SDS011;10051;40.294;-3.754;2022-07-23T04:34:44;9.55;;;4.78;;
19782;SDS011;10051;40.294;-3.754;2022-07-23T04:37:10;11.73;;;4.88;;
19782;SDS011;10051;40.294;-3.754;2022-07-23T04:39:35;12.05;;;4.97;;
19782;SDS011;10051;40.294;-3.754;2022-07-23T04:42:01;13.90;;;5.10;;
19782;SDS011;10051;40.294;-3.754;2022-07-23T04:44:26;7.90;;;4.63;;
19782;SDS011;10051;40.294;-3.754;2022-07-23T04:46:52;13.40;;;4.68;;
19782;SDS011;10051;40.294;-3.754;2022-07-23T04:49:18;16.45;;;4.47;;
19782;SDS011;10051;40.294;-3.754;2022-07-23T04:51:43;16.73;;;5.03;;
19782;SDS011;10051;40.294;-3.754;2022-07-23T04:54:09;16.05;;;4.60;;
19782;SDS011;10051;40.294;-3.754;2022-07-23T04:56:34;17.77;;;4.57;;
19782;SDS011;10051;40.294;-3.754;2022-07-23T04:59:00;19.23;;;4.32;;
19782;SDS011;10051;40.294;-3.754;2022-07-23T05:01:25;23.10;;;4.97;;
19782;SDS011;10051;40.294;-3.754;2022-07-23T05:03:50;17.77;;;4.57;;
19782;SDS011;10051;40.294;-3.754;2022-07-23T05:06:16;20.15;;;4.80;;
19782;SDS011;10051;40.294;-3.754;2022-07-23T05:08:42;20.30;;;4.72;;
19782;SDS011;10051;40.294;-3.754;2022-07-23T05:11:07;15.68;;;4.60;;
19782;SDS011;10051;40.294;-3.754;2022-07-23T05:13:32;16.05;;;5.38;;
19782;SDS011;10051;40.294;-3.754;2022-07-23T05:15:58;20.98;;;5.40;;
19782;SDS011;10051;40.294;-3.754;2022-07-23T05:18:23;25.23;;;5.22;;
19782;SDS011;10051;40.294;-3.754;2022-07-23T05:20:49;15.52;;;5.43;;
19782;SDS011;10051;40.294;-3.754;2022-07-23T05:23:14;14.25;;;5.22;;
19782;SDS011;10051;40.294;-3.754;2022-07-23T05:25:40;19.55;;;5.40;;
19782;SDS011;10051;40.294;-3.754;2022-07-23T05:28:06;20.30;;;5.60;;
19782;SDS011;10051;40.294;-3.754;2022-07-23T05:30:31;24.73;;;5.07;;
19782;SDS011;10051;40.294;-3.754;2022-07-23T05:32:56;13.50;;;4.95;;
19782;SDS011;10051;40.294;-3.754;2022-07-23T05:35:22;26.33;;;5.35;;
19782;SDS011;10051;40.294;-3.754;2022-07-23T05:37:48;20.58;;;5.20;;
19782;SDS011;10051;40.294;-3.754;2022-07-23T05:40:13;16.80;;;5.22;;
19782;SDS011;10051;40.294;-3.754;2022-07-23T05:42:40;16.67;;;5.38;;
19782;SDS011;10051;40.294;-3.754;2022-07-23T05:45:07;20.92;;;5.53;;
19782;SDS011;10051;40.294;-3.754;2022-07-23T05:50:28;19.02;;;4.68;;
19782;SDS011;10051;40.294;-3.754;2022-07-23T05:52:54;11.75;;;4.78;;
19782;SDS011;10051;40.294;-3.754;2022-07-23T05:55:19;15.63;;;5.20;;
19782;SDS011;10051;40.294;-3.754;2022-07-23T05:57:45;17.20;;;5.13;;
19782;SDS011;10051;40.294;-3.754;2022-07-23T06:00:10;19.00;;;5.13;;
19782;SDS011;10051;40.294;-3.754;2022-07-23T06:02:37;16.70;;;4.68;;
19782;SDS011;10051;40.294;-3.754;2022-07-23T06:05:03;17.45;;;5.10;;
19782;SDS011;10051;40.294;-3.754;2022-07-23T06:07:29;15.73;;;4.90;;
19782;SDS011;10051;40.294;-3.754;2022-07-23T06:09:55;13.48;;;4.90;;
19782;SDS011;10051;40.294;-3.754;2022-07-23T06:12:20;16.55;;;4.80;;
19782;SDS011;10051;40.294;-3.754;2022-07-23T06:14:46;11.98;;;4.65;;
19782;SDS011;10051;40.294;-3.754;2022-07-23T06:17:13;10.77;;;4.93;;
19782;SDS011;10051;40.294;-3.754;2022-07-23T06:19:39;17.95;;;4.63;;
19782;SDS011;10051;40.294;-3.754;2022-07-23T06:22:04;16.70;;;5.00;;
19782;SDS011;10051;40.294;-3.754;2022-07-23T06:24:29;16.60;;;4.80;;
19782;SDS011;10051;40.294;-3.754;2022-07-23T06:26:55;12.65;;;4.80;;
19782;SDS011;10051;40.294;-3.754;2022-07-23T06:29:20;10.05;;;4.57;;
19782;SDS011;10051;40.294;-3.754;2022-07-23T06:31:46;13.55;;;4.57;;
19782;SDS011;10051;40.294;-3.754;2022-07-23T06:34:11;13.60;;;4.57;;
19782;SDS011;10051;40.294;-3.754;2022-07-23T06:36:37;11.23;;;4.68;;
19782;SDS011;10051;40.294;-3.754;2022-07-23T06:39:02;13.00;;;4.82;;
19782;SDS011;10051;40.294;-3.754;2022-07-23T06:41:28;13.38;;;4.75;;
19782;SDS011;10051;40.294;-3.754;2022-07-23T06:43:53;9.90;;;4.63;;
19782;SDS011;10051;40.294;-3.754;2022-07-23T06:46:19;17.85;;;4.60;;
19782;SDS011;10051;40.294;-3.754;2022-07-23T06:48:46;14.70;;;4.78;;
19782;SDS011;10051;40.294;-3.754;2022-07-23T06:51:11;16.55;;;4.93;;
19782;SDS011;10051;40.294;-3.754;2022-07-23T06:53:37;15.20;;;4.88;;
19782;SDS011;10051;40.294;-3.754;2022-07-23T06:56:02;16.80;;;5.15;;
19782;SDS011;10051;40.294;-3.754;2022-07-23T06:58:28;14.38;;;4.90;;
19782;SDS011;10051;40.294;-3.754;2022-07-23T07:00:53;11.70;;;4.63;;
19782;SDS011;10051;40.294;-3.754;2022-07-23T07:03:19;12.38;;;4.60;;
19782;SDS011;10051;40.294;-3.754;2022-07-23T07:05:45;21.45;;;7.28;;
19782;SDS011;10051;40.294;-3.754;2022-07-23T07:08:11;13.52;;;4.88;;
19782;SDS011;10051;40.294;-3.754;2022-07-23T07:10:36;14.70;;;4.82;;
19782;SDS011;10051;40.294;-3.754;2022-07-23T07:13:02;9.00;;;4.40;;
19782;SDS011;10051;40.294;-3.754;2022-07-23T07:15:27;19.27;;;4.88;;
19782;SDS011;10051;40.294;-3.754;2022-07-23T07:17:53;12.43;;;4.78;;
19782;SDS011;10051;40.294;-3.754;2022-07-23T07:20:18;13.15;;;4.47;;
19782;SDS011;10051;40.294;-3.754;2022-07-23T07:22:44;16.30;;;5.22;;
19782;SDS011;10051;40.294;-3.754;2022-07-23T07:25:10;13.57;;;4.60;;
19782;SDS011;10051;40.294;-3.754;2022-07-23T07:27:35;13.63;;;5.07;;
19782;SDS011;10051;40.294;-3.754;2022-07-23T07:30:02;19.50;;;4.55;;
19782;SDS011;10051;40.294;-3.754;2022-07-23T07:32:28;11.95;;;4.70;;
19782;SDS011;10051;40.294;-3.754;2022-07-23T07:34:54;16.52;;;4.93;;
19782;SDS011;10051;40.294;-3.754;2022-07-23T07:37:20;12.68;;;4.90;;
19782;SDS011;10051;40.294;-3.754;2022-07-23T07:39:45;10.18;;;4.03;;
19782;SDS011;10051;40.294;-3.754;2022-07-23T07:42:11;12.02;;;4.70;;
19782;SDS011;10051;40.294;-3.754;2022-07-23T07:44:36;13.18;;;4.75;;
19782;SDS011;10051;40.294;-3.754;2022-07-23T07:47:02;11.05;;;4.63;;
19782;SDS011;10051;40.294;-3.754;2022-07-23T07:49:27;12.02;;;4.57;;
19782;SDS011;10051;40.294;-3.754;2022-07-23T07:51:53;10.52;;;4.53;;
19782;SDS011;10051;40.294;-3.754;2022-07-23T07:54:18;14.93;;;4.80;;
19782;SDS011;10051;40.294;-3.754;2022-07-23T07:56:44;15.52;;;4.57;;
19782;SDS011;10051;40.294;-3.754;2022-07-23T07:59:09;7.93;;;4.47;;
19782;SDS011;10051;40.294;-3.754;2022-07-23T08:01:36;16.35;;;4.47;;
19782;SDS011;10051;40.294;-3.754;2022-07-23T08:04:03;10.00;;;4.22;;
19782;SDS011;10051;40.294;-3.754;2022-07-23T08:06:29;14.32;;;4.45;;
19782;SDS011;10051;40.294;-3.754;2022-07-23T08:08:54;13.35;;;4.47;;
19782;SDS011;10051;40.294;-3.754;2022-07-23T08:11:20;14.73;;;4.43;;
19782;SDS011;10051;40.294;-3.754;2022-07-23T08:13:45;16.45;;;4.43;;
19782;SDS011;10051;40.294;-3.754;2022-07-23T08:16:11;19.40;;;4.50;;
19782;SDS011;10051;40.294;-3.754;2022-07-23T08:18:36;14.18;;;4.20;;
19782;SDS011;10051;40.294;-3.754;2022-07-23T08:21:02;20.98;;;4.82;;
19782;SDS011;10051;40.294;-3.754;2022-07-23T08:23:30;14.48;;;4.75;;
19782;SDS011;10051;40.294;-3.754;2022-07-23T08:25:56;12.50;;;4.50;;
19782;SDS011;10051;40.294;-3.754;2022-07-23T08:28:22;15.40;;;4.20;;
19782;SDS011;10051;40.294;-3.754;2022-07-23T08:30:48;12.52;;;4.28;;
19782;SDS011;10051;40.294;-3.754;2022-07-23T08:33:15;12.80;;;4.47;;
19782;SDS011;10051;40.294;-3.754;2022-07-23T08:35:42;11.43;;;4.38;;
19782;SDS011;10051;40.294;-3.754;2022-07-23T08:38:12;13.50;;;4.55;;
19782;SDS011;10051;40.294;-3.754;2022-07-23T08:40:40;14.82;;;4.32;;
19782;SDS011;10051;40.294;-3.754;2022-07-23T08:43:11;13.23;;;4.30;;
19782;SDS011;10051;40.294;-3.754;2022-07-23T08:45:39;13.73;;;4.35;;
19782;SDS011;10051;40.294;-3.754;2022-07-23T08:48:08;11.38;;;4.35;;
19782;SDS011;10051;40.294;-3.754;2022-07-23T08:50:38;14.50;;;4.38;;
19782;SDS011;10051;40.294;-3.754;2022-07-23T08:53:08;17.23;;;4.40;;
19782;SDS011;10051;40.294;-3.754;2022-07-23T08:55:34;10.18;;;4.28;;
19782;SDS011;10051;40.294;-3.754;2022-07-23T08:58:00;8.75;;;4.15;;
19782;SDS011;10051;40.294;-3.754;2022-07-23T09:00:25;7.65;;;4.32;;
19782;SDS011;10051;40.294;-3.754;2022-07-23T09:02:51;14.63;;;4.30;;
19782;SDS011;10051;40.294;-3.754;2022-07-23T09:05:17;10.95;;;4.20;;
19782;SDS011;10051;40.294;-3.754;2022-07-23T09:10:57;11.02;;;4.18;;
19782;SDS011;10051;40.294;-3.754;2022-07-23T09:13:40;15.18;;;4.43;;
19782;SDS011;10051;40.294;-3.754;2022-07-23T09:16:30;16.30;;;4.07;;
19782;SDS011;10051;40.294;-3.754;2022-07-23T09:19:00;13.07;;;4.20;;
19782;SDS011;10051;40.294;-3.754;2022-07-23T09:21:28;12.23;;;4.22;;
19782;SDS011;10051;40.294;-3.754;2022-07-23T09:24:08;12.07;;;4.15;;
19782;SDS011;10051;40.294;-3.754;2022-07-23T09:26:36;16.33;;;4.63;;
19782;SDS011;10051;40.294;-3.754;2022-07-23T09:32:17;10.82;;;4.25;;
19782;SDS011;10051;40.294;-3.754;2022-07-23T09:34:43;18.25;;;4.53;;
19782;SDS011;10051;40.294;-3.754;2022-07-23T09:37:16;12.93;;;4.20;;
19782;SDS011;10051;40.294;-3.754;2022-07-23T09:39:43;21.52;;;4.60;;
19782;SDS011;10051;40.294;-3.754;2022-07-23T09:42:21;16.63;;;4.38;;
19782;SDS011;10051;40.294;-3.754;2022-07-23T09:44:49;9.68;;;4.32;;
19782;SDS011;10051;40.294;-3.754;2022-07-23T09:47:16;11.10;;;3.80;;
19782;SDS011;10051;40.294;-3.754;2022-07-23T09:52:29;11.95;;;4.43;;
19782;SDS011;10051;40.294;-3.754;2022-07-23T09:54:58;12.00;;;3.85;;
19782;SDS011;10051;40.294;-3.754;2022-07-23T09:57:25;14.02;;;3.80;;
19782;SDS011;10051;40.294;-3.754;2022-07-23T09:59:52;9.15;;;3.70;;
19782;SDS011;10051;40.294;-3.754;2022-07-23T10:02:18;8.07;;;3.72;;
19782;SDS011;10051;40.294;-3.754;2022-07-23T10:04:44;9.98;;;3.78;;
19782;SDS011;10051;40.294;-3.754;2022-07-23T10:07:11;9.65;;;3.60;;
19782;SDS011;10051;40.294;-3.754;2022-07-23T10:09:40;32.08;;;4.35;;
19782;SDS011;10051;40.294;-3.754;2022-07-23T10:12:10;9.60;;;3.53;;
19782;SDS011;10051;40.294;-3.754;2022-07-23T10:14:56;10.70;;;3.50;;
19782;SDS011;10051;40.294;-3.754;2022-07-23T10:17:24;8.90;;;3.20;;
19782;SDS011;10051;40.294;-3.754;2022-07-23T10:19:50;9.15;;;3.40;;
19782;SDS011;10051;40.294;-3.754;2022-07-23T10:22:20;7.15;;;2.90;;
19782;SDS011;10051;40.294;-3.754;2022-07-23T10:30:20;7.43;;;3.30;;
19782;SDS011;10051;40.294;-3.754;2022-07-23T10:32:53;5.63;;;3.00;;
19782;SDS011;10051;40.294;-3.754;2022-07-23T10:41:36;10.75;;;2.90;;
19782;SDS011;10051;40.294;-3.754;2022-07-23T10:44:07;9.02;;;2.83;;
19782;SDS011;10051;40.294;-3.754;2022-07-23T10:46:56;9.00;;;2.92;;
19782;SDS011;10051;40.294;-3.754;2022-07-23T10:49:49;8.63;;;2.75;;
19782;SDS011;10051;40.294;-3.754;2022-07-23T10:52:25;5.88;;;2.83;;
19782;SDS011;10051;40.294;-3.754;2022-07-23T10:57:21;10.90;;;3.17;;
19782;SDS011;10051;40.294;-3.754;2022-07-23T11:02:28;8.23;;;2.90;;
19782;SDS011;10051;40.294;-3.754;2022-07-23T11:04:59;7.05;;;2.42;;
19782;SDS011;10051;40.294;-3.754;2022-07-23T11:07:36;3.80;;;2.30;;
19782;SDS011;10051;40.294;-3.754;2022-07-23T11:10:34;8.82;;;2.45;;
19782;SDS011;10051;40.294;-3.754;2022-07-23T11:31:53;6.18;;;2.35;;
19782;SDS011;10051;40.294;-3.754;2022-07-23T11:36:58;7.65;;;2.40;;
19782;SDS011;10051;40.294;-3.754;2022-07-23T11:39:25;6.65;;;2.28;;
19782;SDS011;10051;40.294;-3.754;2022-07-23T11:41:52;10.48;;;2.35;;
19782;SDS011;10051;40.294;-3.754;2022-07-23T11:44:28;6.45;;;2.30;;
19782;SDS011;10051;40.294;-3.754;2022-07-23T11:46:56;8.75;;;2.60;;
19782;SDS011;10051;40.294;-3.754;2022-07-23T11:49:25;6.00;;;2.20;;
19782;SDS011;10051;40.294;-3.754;2022-07-23T11:54:52;6.93;;;2.30;;
19782;SDS011;10051;40.294;-3.754;2022-07-23T11:57:26;9.60;;;2.45;;
19782;SDS011;10051;40.294;-3.754;2022-07-23T12:00:07;7.10;;;2.28;;
19782;SDS011;10051;40.294;-3.754;2022-07-23T12:02:36;4.65;;;2.20;;
19782;SDS011;10051;40.294;-3.754;2022-07-23T12:05:05;4.97;;;2.35;;
19782;SDS011;10051;40.294;-3.754;2022-07-23T12:07:32;5.60;;;2.40;;
19782;SDS011;10051;40.294;-3.754;2022-07-23T12:10:21;11.88;;;2.40;;
19782;SDS011;10051;40.294;-3.754;2022-07-23T12:12:53;7.85;;;2.40;;
19782;SDS011;10051;40.294;-3.754;2022-07-23T12:15:24;8.45;;;2.35;;
19782;SDS011;10051;40.294;-3.754;2022-07-23T12:17:54;8.32;;;2.10;;
19782;SDS011;10051;40.294;-3.754;2022-07-23T12:20:24;6.47;;;2.03;;
19782;SDS011;10051;40.294;-3.754;2022-07-23T12:22:52;8.38;;;2.00;;
19782;SDS011;10051;40.294;-3.754;2022-07-23T12:25:22;6.38;;;2.30;;
19782;SDS011;10051;40.294;-3.754;2022-07-23T12:28:00;14.93;;;2.47;;
19782;SDS011;10051;40.294;-3.754;2022-07-23T12:30:31;3.92;;;1.88;;
19782;SDS011;10051;40.294;-3.754;2022-07-23T12:33:08;6.78;;;2.13;;
19782;SDS011;10051;40.294;-3.754;2022-07-23T12:35:39;11.45;;;2.40;;
19782;SDS011;10051;40.294;-3.754;2022-07-23T12:38:14;7.88;;;2.20;;
19782;SDS011;10051;40.294;-3.754;2022-07-23T12:40:42;6.32;;;2.10;;
19782;SDS011;10051;40.294;-3.754;2022-07-23T12:43:26;8.63;;;2.28;;
19782;SDS011;10051;40.294;-3.754;2022-07-23T12:45:54;5.90;;;2.40;;
19782;SDS011;10051;40.294;-3.754;2022-07-23T12:48:27;4.90;;;2.00;;
19782;SDS011;10051;40.294;-3.754;2022-07-23T12:51:00;6.18;;;2.30;;
19782;SDS011;10051;40.294;-3.754;2022-07-23T12:53:41;8.90;;;2.40;;
19782;SDS011;10051;40.294;-3.754;2022-07-23T12:56:18;7.35;;;2.33;;
19782;SDS011;10051;40.294;-3.754;2022-07-23T12:58:49;6.95;;;2.20;;
19782;SDS011;10051;40.294;-3.754;2022-07-23T13:03:58;7.85;;;2.85;;
19782;SDS011;10051;40.294;-3.754;2022-07-23T13:06:28;6.63;;;2.10;;
19782;SDS011;10051;40.294;-3.754;2022-07-23T13:08:55;6.63;;;2.15;;
19782;SDS011;10051;40.294;-3.754;2022-07-23T13:11:21;6.28;;;2.20;;
19782;SDS011;10051;40.294;-3.754;2022-07-23T13:13:46;15.35;;;2.78;;
19782;SDS011;10051;40.294;-3.754;2022-07-23T13:16:12;8.30;;;2.40;;
19782;SDS011;10051;40.294;-3.754;2022-07-23T13:18:38;7.43;;;2.30;;
19782;SDS011;10051;40.294;-3.754;2022-07-23T13:21:03;8.88;;;2.60;;
19782;SDS011;10051;40.294;-3.754;2022-07-23T13:23:29;7.40;;;2.35;;
19782;SDS011;10051;40.294;-3.754;2022-07-23T13:25:54;9.05;;;2.40;;
19782;SDS011;10051;40.294;-3.754;2022-07-23T13:28:20;7.07;;;2.13;;
19782;SDS011;10051;40.294;-3.754;2022-07-23T13:30:47;8.73;;;2.30;;
19782;SDS011;10051;40.294;-3.754;2022-07-23T13:33:15;6.93;;;2.40;;
19782;SDS011;10051;40.294;-3.754;2022-07-23T13:35:42;11.32;;;2.60;;
19782;SDS011;10051;40.294;-3.754;2022-07-23T13:38:09;9.90;;;2.53;;
19782;SDS011;10051;40.294;-3.754;2022-07-23T13:40:35;7.30;;;2.37;;
19782;SDS011;10051;40.294;-3.754;2022-07-23T13:43:04;6.70;;;2.30;;
19782;SDS011;10051;40.294;-3.754;2022-07-23T13:45:30;11.00;;;2.45;;
19782;SDS011;10051;40.294;-3.754;2022-07-23T13:47:56;9.57;;;2.42;;
19782;SDS011;10051;40.294;-3.754;2022-07-23T13:50:21;8.77;;;2.28;;
19782;SDS011;10051;40.294;-3.754;2022-07-23T13:52:47;8.98;;;2.10;;
19782;SDS011;10051;40.294;-3.754;2022-07-23T13:55:12;9.95;;;2.20;;
19782;SDS011;10051;40.294;-3.754;2022-07-23T13:57:38;7.53;;;2.00;;
19782;SDS011;10051;40.294;-3.754;2022-07-23T14:00:04;7.90;;;2.20;;
19782;SDS011;10051;40.294;-3.754;2022-07-23T14:02:32;7.22;;;2.30;;
19782;SDS011;10051;40.294;-3.754;2022-07-23T14:04:58;9.15;;;2.10;;
19782;SDS011;10051;40.294;-3.754;2022-07-23T14:07:23;9.73;;;2.10;;
19782;SDS011;10051;40.294;-3.754;2022-07-23T14:09:49;7.45;;;2.33;;
19782;SDS011;10051;40.294;-3.754;2022-07-23T14:12:14;4.60;;;2.00;;
19782;SDS011;10051;40.294;-3.754;2022-07-23T14:14:40;8.77;;;2.20;;
19782;SDS011;10051;40.294;-3.754;2022-07-23T14:17:05;10.98;;;2.22;;
19782;SDS011;10051;40.294;-3.754;2022-07-23T14:19:31;9.88;;;2.30;;
19782;SDS011;10051;40.294;-3.754;2022-07-23T14:21:56;7.63;;;1.98;;
19782;SDS011;10051;40.294;-3.754;2022-07-23T14:24:22;7.95;;;1.98;;
19782;SDS011;10051;40.294;-3.754;2022-07-23T14:26:47;6.80;;;2.13;;
19782;SDS011;10051;40.294;-3.754;2022-07-23T14:29:13;4.72;;;1.90;;
19782;SDS011;10051;40.294;-3.754;2022-07-23T14:31:38;4.57;;;1.90;;
19782;SDS011;10051;40.294;-3.754;2022-07-23T14:34:03;7.78;;;2.05;;
19782;SDS011;10051;40.294;-3.754;2022-07-23T14:36:30;5.65;;;1.98;;
19782;SDS011;10051;40.294;-3.754;2022-07-23T14:38:55;4.05;;;2.05;;
19782;SDS011;10051;40.294;-3.754;2022-07-23T14:41:21;6.80;;;2.08;;
19782;SDS011;10051;40.294;-3.754;2022-07-23T14:43:46;4.70;;;2.10;;
19782;SDS011;10051;40.294;-3.754;2022-07-23T14:46:12;5.90;;;1.80;;
19782;SDS011;10051;40.294;-3.754;2022-07-23T14:48:37;5.30;;;1.75;;
19782;SDS011;10051;40.294;-3.754;2022-07-23T14:51:04;6.47;;;2.17;;
19782;SDS011;10051;40.294;-3.754;2022-07-23T14:53:29;7.63;;;1.85;;
19782;SDS011;10051;40.294;-3.754;2022-07-23T14:55:55;6.15;;;2.25;;
19782;SDS011;10051;40.294;-3.754;2022-07-23T14:58:22;5.28;;;1.85;;
19782;SDS011;10051;40.294;-3.754;2022-07-23T15:00:48;6.10;;;1.77;;
19782;SDS011;10051;40.294;-3.754;2022-07-23T15:03:14;3.35;;;1.85;;
19782;SDS011;10051;40.294;-3.754;2022-07-23T15:05:39;5.88;;;1.80;;
19782;SDS011;10051;40.294;-3.754;2022-07-23T15:08:05;5.40;;;1.70;;
19782;SDS011;10051;40.294;-3.754;2022-07-23T15:10:30;3.53;;;1.67;;
19782;SDS011;10051;40.294;-3.754;2022-07-23T15:12:55;3.08;;;1.60;;
19782;SDS011;10051;40.294;-3.754;2022-07-23T15:15:21;2.97;;;1.80;;
19782;SDS011;10051;40.294;-3.754;2022-07-23T15:17:47;5.88;;;1.65;;
19782;SDS011;10051;40.294;-3.754;2022-07-23T15:20:12;5.05;;;1.90;;
19782;SDS011;10051;40.294;-3.754;2022-07-23T15:22:37;4.10;;;1.80;;
19782;SDS011;10051;40.294;-3.754;2022-07-23T15:25:03;4.07;;;1.70;;
19782;SDS011;10051;40.294;-3.754;2022-07-23T15:27:29;4.90;;;1.60;;